sensor_id;sensor_type;location;lat;lon;timestamp;P1;durP1;ratioP1;P2;durP2;ratioP2
12681;SDS011;6405;59.208;18.216;2023-09-19T00:00:19;9.63;;;7.57;;
12681;SDS011;6405;59.208;18.216;2023-09-19T00:02:56;9.87;;;7.47;;
12681;SDS011;6405;59.208;18.216;2023-09-19T00:05:24;10.83;;;8.00;;
12681;SDS011;6405;59.208;18.216;2023-09-19T00:07:55;12.77;;;8.77;;
12681;SDS011;6405;59.208;18.216;2023-09-19T00:10:24;11.07;;;8.07;;
12681;SDS011;6405;59.208;18.216;2023-09-19T00:12:56;8.57;;;7.63;;
12681;SDS011;6405;59.208;18.216;2023-09-19T00:15:26;15.83;;;8.87;;
12681;SDS011;6405;59.208;18.216;2023-09-19T00:17:55;12.27;;;8.57;;
12681;SDS011;6405;59.208;18.216;2023-09-19T00:20:21;13.07;;;9.83;;
12681;SDS011;6405;59.208;18.216;2023-09-19T00:22:50;12.63;;;8.50;;
12681;SDS011;6405;59.208;18.216;2023-09-19T00:25:19;14.57;;;9.30;;
12681;SDS011;6405;59.208;18.216;2023-09-19T00:27:46;11.63;;;8.07;;
12681;SDS011;6405;59.208;18.216;2023-09-19T00:30:16;11.07;;;8.63;;
12681;SDS011;6405;59.208;18.216;2023-09-19T00:32:48;14.70;;;8.07;;
12681;SDS011;6405;59.208;18.216;2023-09-19T00:35:19;13.27;;;8.87;;
12681;SDS011;6405;59.208;18.216;2023-09-19T00:37:46;14.53;;;9.90;;
12681;SDS011;6405;59.208;18.216;2023-09-19T00:40:12;11.80;;;8.20;;
12681;SDS011;6405;59.208;18.216;2023-09-19T00:42:40;13.50;;;9.37;;
12681;SDS011;6405;59.208;18.216;2023-09-19T00:45:13;15.30;;;9.47;;
12681;SDS011;6405;59.208;18.216;2023-09-19T00:47:44;16.70;;;9.97;;
12681;SDS011;6405;59.208;18.216;2023-09-19T00:50:11;14.83;;;9.10;;
12681;SDS011;6405;59.208;18.216;2023-09-19T00:52:40;12.07;;;9.33;;
12681;SDS011;6405;59.208;18.216;2023-09-19T00:55:08;21.10;;;9.53;;
12681;SDS011;6405;59.208;18.216;2023-09-19T00:57:35;13.57;;;9.07;;
12681;SDS011;6405;59.208;18.216;2023-09-19T01:00:03;15.67;;;9.63;;
12681;SDS011;6405;59.208;18.216;2023-09-19T01:02:34;11.73;;;8.50;;
12681;SDS011;6405;59.208;18.216;2023-09-19T01:05:00;13.03;;;8.93;;
12681;SDS011;6405;59.208;18.216;2023-09-19T01:07:27;15.63;;;8.63;;
12681;SDS011;6405;59.208;18.216;2023-09-19T01:09:56;12.10;;;8.33;;
12681;SDS011;6405;59.208;18.216;2023-09-19T01:15:12;13.90;;;8.90;;
12681;SDS011;6405;59.208;18.216;2023-09-19T01:20:57;15.73;;;9.47;;
12681;SDS011;6405;59.208;18.216;2023-09-19T01:26:44;17.43;;;9.70;;
12681;SDS011;6405;59.208;18.216;2023-09-19T01:29:44;13.40;;;9.30;;
12681;SDS011;6405;59.208;18.216;2023-09-19T01:32:11;16.30;;;8.97;;
12681;SDS011;6405;59.208;18.216;2023-09-19T01:37:14;16.97;;;10.57;;
12681;SDS011;6405;59.208;18.216;2023-09-19T01:39:45;11.67;;;9.30;;
12681;SDS011;6405;59.208;18.216;2023-09-19T01:45:13;17.80;;;10.80;;
12681;SDS011;6405;59.208;18.216;2023-09-19T01:47:56;14.27;;;10.03;;
12681;SDS011;6405;59.208;18.216;2023-09-19T01:50:43;16.07;;;10.73;;
12681;SDS011;6405;59.208;18.216;2023-09-19T01:53:25;15.80;;;10.90;;
12681;SDS011;6405;59.208;18.216;2023-09-19T01:56:03;18.00;;;10.93;;
12681;SDS011;6405;59.208;18.216;2023-09-19T01:58:41;16.43;;;11.67;;
12681;SDS011;6405;59.208;18.216;2023-09-19T02:01:15;25.50;;;12.37;;
12681;SDS011;6405;59.208;18.216;2023-09-19T02:03:44;17.40;;;12.60;;
12681;SDS011;6405;59.208;18.216;2023-09-19T02:06:15;19.77;;;12.77;;
12681;SDS011;6405;59.208;18.216;2023-09-19T02:08:42;16.77;;;12.50;;
12681;SDS011;6405;59.208;18.216;2023-09-19T02:11:08;23.63;;;13.13;;
12681;SDS011;6405;59.208;18.216;2023-09-19T02:13:34;16.33;;;13.37;;
12681;SDS011;6405;59.208;18.216;2023-09-19T02:15:59;19.77;;;14.07;;
12681;SDS011;6405;59.208;18.216;2023-09-19T02:18:25;20.80;;;14.03;;
12681;SDS011;6405;59.208;18.216;2023-09-19T02:20:53;20.97;;;13.93;;
12681;SDS011;6405;59.208;18.216;2023-09-19T02:23:19;21.00;;;14.23;;
12681;SDS011;6405;59.208;18.216;2023-09-19T02:25:54;15.63;;;12.40;;
12681;SDS011;6405;59.208;18.216;2023-09-19T02:28:22;21.93;;;13.80;;
12681;SDS011;6405;59.208;18.216;2023-09-19T02:30:48;22.13;;;14.37;;
12681;SDS011;6405;59.208;18.216;2023-09-19T02:33:14;22.43;;;13.67;;
12681;SDS011;6405;59.208;18.216;2023-09-19T02:35:40;25.40;;;14.87;;
12681;SDS011;6405;59.208;18.216;2023-09-19T02:38:06;21.73;;;15.03;;
12681;SDS011;6405;59.208;18.216;2023-09-19T02:40:36;24.00;;;16.23;;
12681;SDS011;6405;59.208;18.216;2023-09-19T02:43:02;25.03;;;16.87;;
12681;SDS011;6405;59.208;18.216;2023-09-19T02:45:30;27.10;;;16.57;;
12681;SDS011;6405;59.208;18.216;2023-09-19T02:47:56;32.10;;;18.03;;
12681;SDS011;6405;59.208;18.216;2023-09-19T02:50:22;24.20;;;16.67;;
12681;SDS011;6405;59.208;18.216;2023-09-19T02:52:48;23.07;;;16.40;;
12681;SDS011;6405;59.208;18.216;2023-09-19T02:55:14;29.43;;;18.50;;
12681;SDS011;6405;59.208;18.216;2023-09-19T02:57:49;33.33;;;19.47;;
12681;SDS011;6405;59.208;18.216;2023-09-19T03:00:17;26.27;;;17.47;;
12681;SDS011;6405;59.208;18.216;2023-09-19T03:02:48;28.10;;;17.93;;
12681;SDS011;6405;59.208;18.216;2023-09-19T03:05:14;29.17;;;18.37;;
12681;SDS011;6405;59.208;18.216;2023-09-19T03:07:40;27.83;;;17.60;;
12681;SDS011;6405;59.208;18.216;2023-09-19T03:10:08;27.73;;;18.53;;
12681;SDS011;6405;59.208;18.216;2023-09-19T03:12:34;28.63;;;19.67;;
12681;SDS011;6405;59.208;18.216;2023-09-19T03:15:01;32.87;;;19.10;;
12681;SDS011;6405;59.208;18.216;2023-09-19T03:17:27;33.37;;;20.47;;
12681;SDS011;6405;59.208;18.216;2023-09-19T03:19:52;30.77;;;21.03;;
12681;SDS011;6405;59.208;18.216;2023-09-19T03:22:19;30.87;;;19.63;;
12681;SDS011;6405;59.208;18.216;2023-09-19T03:24:45;27.03;;;20.10;;
12681;SDS011;6405;59.208;18.216;2023-09-19T03:27:11;28.73;;;18.87;;
12681;SDS011;6405;59.208;18.216;2023-09-19T03:29:41;31.07;;;20.97;;
12681;SDS011;6405;59.208;18.216;2023-09-19T03:32:07;31.17;;;20.97;;
12681;SDS011;6405;59.208;18.216;2023-09-19T03:34:36;33.20;;;21.27;;
12681;SDS011;6405;59.208;18.216;2023-09-19T03:37:07;30.47;;;20.03;;
12681;SDS011;6405;59.208;18.216;2023-09-19T03:39:33;31.30;;;21.17;;
12681;SDS011;6405;59.208;18.216;2023-09-19T03:41:59;31.60;;;20.87;;
12681;SDS011;6405;59.208;18.216;2023-09-19T03:44:28;29.90;;;20.77;;
12681;SDS011;6405;59.208;18.216;2023-09-19T03:46:53;30.13;;;21.03;;
12681;SDS011;6405;59.208;18.216;2023-09-19T03:49:20;31.70;;;21.83;;
12681;SDS011;6405;59.208;18.216;2023-09-19T03:51:46;33.33;;;20.60;;
12681;SDS011;6405;59.208;18.216;2023-09-19T03:54:12;32.17;;;21.70;;
12681;SDS011;6405;59.208;18.216;2023-09-19T03:56:37;30.03;;;21.00;;
12681;SDS011;6405;59.208;18.216;2023-09-19T03:59:03;31.43;;;20.17;;
12681;SDS011;6405;59.208;18.216;2023-09-19T04:01:29;32.07;;;21.77;;
12681;SDS011;6405;59.208;18.216;2023-09-19T04:03:57;31.87;;;22.00;;
12681;SDS011;6405;59.208;18.216;2023-09-19T04:06:23;35.17;;;22.07;;
12681;SDS011;6405;59.208;18.216;2023-09-19T04:08:49;34.83;;;21.93;;
12681;SDS011;6405;59.208;18.216;2023-09-19T04:11:15;40.73;;;23.23;;
12681;SDS011;6405;59.208;18.216;2023-09-19T04:13:40;38.67;;;23.63;;
12681;SDS011;6405;59.208;18.216;2023-09-19T04:16:06;35.97;;;22.57;;
12681;SDS011;6405;59.208;18.216;2023-09-19T04:18:32;43.77;;;24.17;;
12681;SDS011;6405;59.208;18.216;2023-09-19T04:20:58;36.50;;;24.03;;
12681;SDS011;6405;59.208;18.216;2023-09-19T04:23:27;33.70;;;22.37;;
12681;SDS011;6405;59.208;18.216;2023-09-19T04:25:53;34.67;;;22.33;;
12681;SDS011;6405;59.208;18.216;2023-09-19T04:28:19;35.30;;;22.83;;
12681;SDS011;6405;59.208;18.216;2023-09-19T04:30:44;37.20;;;24.33;;
12681;SDS011;6405;59.208;18.216;2023-09-19T04:33:10;34.87;;;23.33;;
12681;SDS011;6405;59.208;18.216;2023-09-19T04:35:39;36.20;;;23.10;;
12681;SDS011;6405;59.208;18.216;2023-09-19T04:38:07;37.03;;;24.93;;
12681;SDS011;6405;59.208;18.216;2023-09-19T04:40:33;40.47;;;26.00;;
12681;SDS011;6405;59.208;18.216;2023-09-19T04:43:00;37.73;;;25.50;;
12681;SDS011;6405;59.208;18.216;2023-09-19T04:45:26;39.17;;;25.80;;
12681;SDS011;6405;59.208;18.216;2023-09-19T04:47:53;40.93;;;26.50;;
12681;SDS011;6405;59.208;18.216;2023-09-19T04:50:19;35.73;;;24.13;;
12681;SDS011;6405;59.208;18.216;2023-09-19T04:52:50;34.47;;;26.13;;
12681;SDS011;6405;59.208;18.216;2023-09-19T04:55:16;39.07;;;24.67;;
12681;SDS011;6405;59.208;18.216;2023-09-19T04:57:45;40.10;;;24.80;;
12681;SDS011;6405;59.208;18.216;2023-09-19T05:00:22;39.17;;;25.30;;
12681;SDS011;6405;59.208;18.216;2023-09-19T05:02:55;35.00;;;25.47;;
12681;SDS011;6405;59.208;18.216;2023-09-19T05:05:22;37.40;;;24.47;;
12681;SDS011;6405;59.208;18.216;2023-09-19T05:07:48;37.87;;;23.67;;
12681;SDS011;6405;59.208;18.216;2023-09-19T05:10:14;42.07;;;25.33;;
12681;SDS011;6405;59.208;18.216;2023-09-19T05:12:44;46.70;;;25.80;;
12681;SDS011;6405;59.208;18.216;2023-09-19T05:15:13;36.63;;;24.23;;
12681;SDS011;6405;59.208;18.216;2023-09-19T05:17:40;34.97;;;23.20;;
12681;SDS011;6405;59.208;18.216;2023-09-19T05:20:06;31.43;;;22.13;;
12681;SDS011;6405;59.208;18.216;2023-09-19T05:23:06;37.60;;;23.70;;
12681;SDS011;6405;59.208;18.216;2023-09-19T05:25:37;34.13;;;22.67;;
12681;SDS011;6405;59.208;18.216;2023-09-19T05:28:08;32.07;;;22.70;;
12681;SDS011;6405;59.208;18.216;2023-09-19T05:30:35;34.43;;;22.33;;
12681;SDS011;6405;59.208;18.216;2023-09-19T05:33:02;37.20;;;22.00;;
12681;SDS011;6405;59.208;18.216;2023-09-19T05:35:29;29.27;;;22.47;;
12681;SDS011;6405;59.208;18.216;2023-09-19T05:37:56;32.57;;;23.70;;
12681;SDS011;6405;59.208;18.216;2023-09-19T05:40:23;43.13;;;24.77;;
12681;SDS011;6405;59.208;18.216;2023-09-19T05:42:49;37.80;;;23.87;;
12681;SDS011;6405;59.208;18.216;2023-09-19T05:45:16;41.73;;;27.03;;
12681;SDS011;6405;59.208;18.216;2023-09-19T05:47:49;39.67;;;26.07;;
12681;SDS011;6405;59.208;18.216;2023-09-19T05:50:16;38.03;;;25.50;;
12681;SDS011;6405;59.208;18.216;2023-09-19T05:52:43;33.33;;;24.50;;
12681;SDS011;6405;59.208;18.216;2023-09-19T05:55:17;35.97;;;26.17;;
12681;SDS011;6405;59.208;18.216;2023-09-19T05:57:43;34.27;;;24.67;;
12681;SDS011;6405;59.208;18.216;2023-09-19T06:00:15;32.30;;;23.87;;
12681;SDS011;6405;59.208;18.216;2023-09-19T06:02:43;33.97;;;22.67;;
12681;SDS011;6405;59.208;18.216;2023-09-19T06:05:09;37.50;;;25.37;;
12681;SDS011;6405;59.208;18.216;2023-09-19T06:07:38;35.70;;;24.73;;
12681;SDS011;6405;59.208;18.216;2023-09-19T06:10:04;31.20;;;23.23;;
12681;SDS011;6405;59.208;18.216;2023-09-19T06:12:33;31.37;;;23.53;;
12681;SDS011;6405;59.208;18.216;2023-09-19T06:15:09;30.73;;;21.40;;
12681;SDS011;6405;59.208;18.216;2023-09-19T06:17:40;28.07;;;21.20;;
12681;SDS011;6405;59.208;18.216;2023-09-19T06:20:11;29.03;;;21.20;;
12681;SDS011;6405;59.208;18.216;2023-09-19T06:22:44;29.60;;;22.00;;
12681;SDS011;6405;59.208;18.216;2023-09-19T06:25:11;33.30;;;23.20;;
12681;SDS011;6405;59.208;18.216;2023-09-19T06:27:40;30.87;;;22.30;;
12681;SDS011;6405;59.208;18.216;2023-09-19T06:30:08;28.67;;;22.10;;
12681;SDS011;6405;59.208;18.216;2023-09-19T06:32:34;34.13;;;24.07;;
12681;SDS011;6405;59.208;18.216;2023-09-19T06:35:00;32.37;;;23.90;;
12681;SDS011;6405;59.208;18.216;2023-09-19T06:37:29;37.73;;;24.97;;
12681;SDS011;6405;59.208;18.216;2023-09-19T06:39:55;37.07;;;24.37;;
12681;SDS011;6405;59.208;18.216;2023-09-19T06:42:22;33.37;;;23.77;;
12681;SDS011;6405;59.208;18.216;2023-09-19T06:44:48;33.23;;;23.37;;
12681;SDS011;6405;59.208;18.216;2023-09-19T06:47:14;34.40;;;24.07;;
12681;SDS011;6405;59.208;18.216;2023-09-19T06:49:41;34.77;;;23.27;;
12681;SDS011;6405;59.208;18.216;2023-09-19T06:52:10;32.40;;;24.17;;
12681;SDS011;6405;59.208;18.216;2023-09-19T06:54:36;31.30;;;22.70;;
12681;SDS011;6405;59.208;18.216;2023-09-19T06:57:02;33.17;;;23.90;;
12681;SDS011;6405;59.208;18.216;2023-09-19T06:59:28;40.17;;;25.07;;
12681;SDS011;6405;59.208;18.216;2023-09-19T07:01:54;38.23;;;24.87;;
12681;SDS011;6405;59.208;18.216;2023-09-19T07:04:20;39.13;;;25.20;;
12681;SDS011;6405;59.208;18.216;2023-09-19T07:06:51;34.33;;;25.20;;
12681;SDS011;6405;59.208;18.216;2023-09-19T07:09:17;30.87;;;23.47;;
12681;SDS011;6405;59.208;18.216;2023-09-19T07:11:47;31.00;;;22.17;;
12681;SDS011;6405;59.208;18.216;2023-09-19T07:14:15;25.83;;;21.47;;
12681;SDS011;6405;59.208;18.216;2023-09-19T07:16:41;32.80;;;22.00;;
12681;SDS011;6405;59.208;18.216;2023-09-19T07:19:09;30.90;;;22.77;;
12681;SDS011;6405;59.208;18.216;2023-09-19T07:21:36;32.23;;;22.20;;
12681;SDS011;6405;59.208;18.216;2023-09-19T07:24:03;22.70;;;18.20;;
12681;SDS011;6405;59.208;18.216;2023-09-19T07:26:29;22.53;;;18.63;;
12681;SDS011;6405;59.208;18.216;2023-09-19T07:28:56;22.70;;;17.83;;
12681;SDS011;6405;59.208;18.216;2023-09-19T07:31:22;23.57;;;17.97;;
12681;SDS011;6405;59.208;18.216;2023-09-19T07:33:50;26.53;;;18.87;;
12681;SDS011;6405;59.208;18.216;2023-09-19T07:36:16;26.63;;;18.53;;
12681;SDS011;6405;59.208;18.216;2023-09-19T07:38:42;25.63;;;19.20;;
12681;SDS011;6405;59.208;18.216;2023-09-19T07:41:08;24.57;;;20.20;;
12681;SDS011;6405;59.208;18.216;2023-09-19T07:43:34;28.67;;;20.33;;
12681;SDS011;6405;59.208;18.216;2023-09-19T07:46:06;27.47;;;20.13;;
12681;SDS011;6405;59.208;18.216;2023-09-19T07:48:36;27.93;;;21.63;;
12681;SDS011;6405;59.208;18.216;2023-09-19T07:51:06;29.80;;;21.93;;
12681;SDS011;6405;59.208;18.216;2023-09-19T07:53:36;30.77;;;22.27;;
12681;SDS011;6405;59.208;18.216;2023-09-19T07:56:06;35.03;;;22.33;;
12681;SDS011;6405;59.208;18.216;2023-09-19T07:58:32;29.80;;;22.03;;
12681;SDS011;6405;59.208;18.216;2023-09-19T08:03:31;28.33;;;22.13;;
12681;SDS011;6405;59.208;18.216;2023-09-19T08:05:57;31.33;;;22.80;;
12681;SDS011;6405;59.208;18.216;2023-09-19T08:08:24;28.40;;;21.63;;
12681;SDS011;6405;59.208;18.216;2023-09-19T08:10:54;24.73;;;19.60;;
12681;SDS011;6405;59.208;18.216;2023-09-19T08:13:24;27.27;;;18.57;;
12681;SDS011;6405;59.208;18.216;2023-09-19T08:15:50;27.50;;;18.60;;
12681;SDS011;6405;59.208;18.216;2023-09-19T08:18:18;26.70;;;19.00;;
12681;SDS011;6405;59.208;18.216;2023-09-19T08:20:48;26.63;;;18.17;;
12681;SDS011;6405;59.208;18.216;2023-09-19T08:23:15;24.87;;;18.60;;
12681;SDS011;6405;59.208;18.216;2023-09-19T08:25:43;26.70;;;17.90;;
12681;SDS011;6405;59.208;18.216;2023-09-19T08:28:09;26.57;;;17.60;;
12681;SDS011;6405;59.208;18.216;2023-09-19T08:30:37;22.20;;;16.87;;
12681;SDS011;6405;59.208;18.216;2023-09-19T08:33:05;29.90;;;18.20;;
12681;SDS011;6405;59.208;18.216;2023-09-19T08:35:31;24.07;;;18.03;;
12681;SDS011;6405;59.208;18.216;2023-09-19T08:37:57;21.90;;;16.80;;
12681;SDS011;6405;59.208;18.216;2023-09-19T08:40:25;23.83;;;17.50;;
12681;SDS011;6405;59.208;18.216;2023-09-19T08:42:55;24.43;;;16.97;;
12681;SDS011;6405;59.208;18.216;2023-09-19T08:45:21;22.53;;;16.40;;
12681;SDS011;6405;59.208;18.216;2023-09-19T08:50:30;23.67;;;17.23;;
12681;SDS011;6405;59.208;18.216;2023-09-19T08:52:58;23.43;;;16.83;;
12681;SDS011;6405;59.208;18.216;2023-09-19T08:55:29;20.93;;;16.77;;
12681;SDS011;6405;59.208;18.216;2023-09-19T08:57:59;27.00;;;16.13;;
12681;SDS011;6405;59.208;18.216;2023-09-19T09:00:28;21.20;;;16.53;;
12681;SDS011;6405;59.208;18.216;2023-09-19T09:02:55;20.83;;;15.83;;
12681;SDS011;6405;59.208;18.216;2023-09-19T09:05:23;24.37;;;16.07;;
12681;SDS011;6405;59.208;18.216;2023-09-19T09:07:49;23.77;;;16.07;;
12681;SDS011;6405;59.208;18.216;2023-09-19T09:10:21;19.07;;;15.37;;
12681;SDS011;6405;59.208;18.216;2023-09-19T09:12:51;20.60;;;15.30;;
12681;SDS011;6405;59.208;18.216;2023-09-19T09:15:19;20.43;;;14.70;;
12681;SDS011;6405;59.208;18.216;2023-09-19T09:17:48;18.53;;;13.60;;
12681;SDS011;6405;59.208;18.216;2023-09-19T09:20:16;17.27;;;12.97;;
12681;SDS011;6405;59.208;18.216;2023-09-19T09:22:52;18.73;;;13.23;;
12681;SDS011;6405;59.208;18.216;2023-09-19T09:25:19;21.40;;;13.67;;
12681;SDS011;6405;59.208;18.216;2023-09-19T09:28:01;18.90;;;13.50;;
12681;SDS011;6405;59.208;18.216;2023-09-19T09:30:36;19.53;;;12.97;;
12681;SDS011;6405;59.208;18.216;2023-09-19T09:33:09;17.07;;;12.60;;
12681;SDS011;6405;59.208;18.216;2023-09-19T09:35:36;18.93;;;13.13;;
12681;SDS011;6405;59.208;18.216;2023-09-19T09:38:12;17.13;;;12.80;;
12681;SDS011;6405;59.208;18.216;2023-09-19T09:40:49;15.90;;;12.90;;
12681;SDS011;6405;59.208;18.216;2023-09-19T09:43:34;16.37;;;12.23;;
12681;SDS011;6405;59.208;18.216;2023-09-19T09:46:13;14.93;;;11.90;;
12681;SDS011;6405;59.208;18.216;2023-09-19T09:48:46;16.80;;;11.57;;
12681;SDS011;6405;59.208;18.216;2023-09-19T09:51:32;14.47;;;11.23;;
12681;SDS011;6405;59.208;18.216;2023-09-19T09:54:17;13.07;;;11.07;;
12681;SDS011;6405;59.208;18.216;2023-09-19T09:56:56;14.87;;;11.47;;
12681;SDS011;6405;59.208;18.216;2023-09-19T10:02:25;13.00;;;9.77;;
12681;SDS011;6405;59.208;18.216;2023-09-19T10:05:14;13.57;;;9.80;;
12681;SDS011;6405;59.208;18.216;2023-09-19T10:07:46;15.73;;;10.00;;
12681;SDS011;6405;59.208;18.216;2023-09-19T10:13:09;14.73;;;9.47;;
12681;SDS011;6405;59.208;18.216;2023-09-19T10:15:43;10.17;;;9.00;;
12681;SDS011;6405;59.208;18.216;2023-09-19T10:18:16;15.47;;;9.60;;
12681;SDS011;6405;59.208;18.216;2023-09-19T10:20:45;10.60;;;9.03;;
12681;SDS011;6405;59.208;18.216;2023-09-19T10:23:14;11.63;;;9.23;;
12681;SDS011;6405;59.208;18.216;2023-09-19T10:25:47;14.50;;;8.43;;
12681;SDS011;6405;59.208;18.216;2023-09-19T10:28:15;12.33;;;8.13;;
12681;SDS011;6405;59.208;18.216;2023-09-19T10:30:47;9.70;;;7.43;;
12681;SDS011;6405;59.208;18.216;2023-09-19T10:33:16;11.03;;;8.30;;
12681;SDS011;6405;59.208;18.216;2023-09-19T10:35:46;10.10;;;8.10;;
12681;SDS011;6405;59.208;18.216;2023-09-19T10:38:14;8.63;;;7.70;;
12681;SDS011;6405;59.208;18.216;2023-09-19T10:40:49;12.97;;;7.23;;
12681;SDS011;6405;59.208;18.216;2023-09-19T10:43:17;11.60;;;8.27;;
12681;SDS011;6405;59.208;18.216;2023-09-19T10:45:50;11.50;;;7.90;;
12681;SDS011;6405;59.208;18.216;2023-09-19T10:48:17;11.20;;;6.90;;
12681;SDS011;6405;59.208;18.216;2023-09-19T10:53:47;10.53;;;7.97;;
12681;SDS011;6405;59.208;18.216;2023-09-19T10:56:20;11.53;;;7.13;;
12681;SDS011;6405;59.208;18.216;2023-09-19T10:58:53;10.30;;;7.27;;
12681;SDS011;6405;59.208;18.216;2023-09-19T11:04:23;8.90;;;5.93;;
12681;SDS011;6405;59.208;18.216;2023-09-19T11:15:02;6.33;;;5.67;;
12681;SDS011;6405;59.208;18.216;2023-09-19T11:17:36;8.73;;;4.50;;
12681;SDS011;6405;59.208;18.216;2023-09-19T11:25:41;6.20;;;4.00;;
12681;SDS011;6405;59.208;18.216;2023-09-19T11:30:46;5.47;;;3.20;;
12681;SDS011;6405;59.208;18.216;2023-09-19T11:46:19;3.90;;;2.27;;
12681;SDS011;6405;59.208;18.216;2023-09-19T11:48:49;3.43;;;2.37;;
12681;SDS011;6405;59.208;18.216;2023-09-19T11:51:22;4.97;;;2.40;;
12681;SDS011;6405;59.208;18.216;2023-09-19T11:53:55;3.90;;;2.43;;
12681;SDS011;6405;59.208;18.216;2023-09-19T11:56:24;3.43;;;2.90;;
12681;SDS011;6405;59.208;18.216;2023-09-19T11:58:56;4.37;;;2.27;;
12681;SDS011;6405;59.208;18.216;2023-09-19T12:01:29;3.97;;;2.50;;
12681;SDS011;6405;59.208;18.216;2023-09-19T12:03:58;3.53;;;2.13;;
12681;SDS011;6405;59.208;18.216;2023-09-19T12:06:25;2.00;;;1.80;;
12681;SDS011;6405;59.208;18.216;2023-09-19T12:08:52;6.00;;;1.77;;
12681;SDS011;6405;59.208;18.216;2023-09-19T12:11:26;2.93;;;1.30;;
12681;SDS011;6405;59.208;18.216;2023-09-19T12:14:01;1.50;;;1.10;;
12681;SDS011;6405;59.208;18.216;2023-09-19T12:16:27;2.37;;;1.20;;
12681;SDS011;6405;59.208;18.216;2023-09-19T12:18:58;2.87;;;1.37;;
12681;SDS011;6405;59.208;18.216;2023-09-19T12:21:54;2.80;;;1.20;;
12681;SDS011;6405;59.208;18.216;2023-09-19T12:24:25;3.00;;;1.40;;
12681;SDS011;6405;59.208;18.216;2023-09-19T12:26:54;3.40;;;1.57;;
12681;SDS011;6405;59.208;18.216;2023-09-19T12:29:26;5.50;;;1.60;;
12681;SDS011;6405;59.208;18.216;2023-09-19T12:31:56;3.30;;;1.57;;
12681;SDS011;6405;59.208;18.216;2023-09-19T12:34:23;2.70;;;1.20;;
12681;SDS011;6405;59.208;18.216;2023-09-19T12:39:48;3.10;;;1.30;;
12681;SDS011;6405;59.208;18.216;2023-09-19T12:42:20;1.97;;;1.30;;
12681;SDS011;6405;59.208;18.216;2023-09-19T12:44:54;2.20;;;1.33;;
12681;SDS011;6405;59.208;18.216;2023-09-19T12:47:22;2.23;;;1.27;;
12681;SDS011;6405;59.208;18.216;2023-09-19T12:50:05;3.70;;;1.80;;
12681;SDS011;6405;59.208;18.216;2023-09-19T12:52:39;5.27;;;1.33;;
12681;SDS011;6405;59.208;18.216;2023-09-19T12:55:06;2.30;;;0.97;;
12681;SDS011;6405;59.208;18.216;2023-09-19T12:57:34;3.00;;;1.40;;
12681;SDS011;6405;59.208;18.216;2023-09-19T13:00:03;2.53;;;1.17;;
12681;SDS011;6405;59.208;18.216;2023-09-19T13:02:36;2.17;;;1.23;;
12681;SDS011;6405;59.208;18.216;2023-09-19T13:05:02;2.83;;;1.30;;
12681;SDS011;6405;59.208;18.216;2023-09-19T13:10:12;2.10;;;1.30;;
12681;SDS011;6405;59.208;18.216;2023-09-19T13:12:42;4.87;;;1.33;;
12681;SDS011;6405;59.208;18.216;2023-09-19T13:15:13;2.90;;;1.20;;
12681;SDS011;6405;59.208;18.216;2023-09-19T13:17:50;2.03;;;1.20;;
12681;SDS011;6405;59.208;18.216;2023-09-19T13:20:23;3.47;;;1.40;;
12681;SDS011;6405;59.208;18.216;2023-09-19T13:22:53;2.43;;;1.63;;
12681;SDS011;6405;59.208;18.216;2023-09-19T13:25:23;6.97;;;1.60;;
12681;SDS011;6405;59.208;18.216;2023-09-19T13:27:52;7.03;;;1.67;;
12681;SDS011;6405;59.208;18.216;2023-09-19T13:30:19;3.83;;;1.77;;
12681;SDS011;6405;59.208;18.216;2023-09-19T13:32:47;2.23;;;1.40;;
12681;SDS011;6405;59.208;18.216;2023-09-19T13:35:16;2.87;;;1.67;;
12681;SDS011;6405;59.208;18.216;2023-09-19T13:37:42;7.80;;;1.83;;
12681;SDS011;6405;59.208;18.216;2023-09-19T13:40:10;3.03;;;1.50;;
12681;SDS011;6405;59.208;18.216;2023-09-19T13:42:37;3.83;;;1.83;;
12681;SDS011;6405;59.208;18.216;2023-09-19T13:45:03;2.80;;;1.60;;
12681;SDS011;6405;59.208;18.216;2023-09-19T13:47:32;5.43;;;1.90;;
12681;SDS011;6405;59.208;18.216;2023-09-19T13:49:59;3.13;;;1.80;;
12681;SDS011;6405;59.208;18.216;2023-09-19T13:52:25;3.77;;;1.90;;
12681;SDS011;6405;59.208;18.216;2023-09-19T13:54:56;3.47;;;1.97;;
12681;SDS011;6405;59.208;18.216;2023-09-19T13:57:22;4.03;;;1.67;;
12681;SDS011;6405;59.208;18.216;2023-09-19T13:59:49;2.53;;;1.60;;
12681;SDS011;6405;59.208;18.216;2023-09-19T14:02:14;3.53;;;1.30;;
12681;SDS011;6405;59.208;18.216;2023-09-19T14:04:43;3.80;;;1.60;;
12681;SDS011;6405;59.208;18.216;2023-09-19T14:07:12;4.40;;;1.50;;
12681;SDS011;6405;59.208;18.216;2023-09-19T14:09:40;2.40;;;1.30;;
12681;SDS011;6405;59.208;18.216;2023-09-19T14:12:06;3.77;;;1.33;;
12681;SDS011;6405;59.208;18.216;2023-09-19T14:14:32;4.33;;;1.40;;
12681;SDS011;6405;59.208;18.216;2023-09-19T14:16:58;4.57;;;1.90;;
12681;SDS011;6405;59.208;18.216;2023-09-19T14:19:29;3.97;;;1.50;;
12681;SDS011;6405;59.208;18.216;2023-09-19T14:21:54;2.40;;;1.57;;
12681;SDS011;6405;59.208;18.216;2023-09-19T14:24:21;5.03;;;1.50;;
12681;SDS011;6405;59.208;18.216;2023-09-19T14:26:47;3.30;;;1.80;;
12681;SDS011;6405;59.208;18.216;2023-09-19T14:29:14;3.20;;;1.50;;
12681;SDS011;6405;59.208;18.216;2023-09-19T14:31:40;4.93;;;1.30;;
12681;SDS011;6405;59.208;18.216;2023-09-19T14:34:07;4.87;;;1.60;;
12681;SDS011;6405;59.208;18.216;2023-09-19T14:36:36;2.80;;;1.33;;
12681;SDS011;6405;59.208;18.216;2023-09-19T14:39:03;5.07;;;1.70;;
12681;SDS011;6405;59.208;18.216;2023-09-19T14:41:29;3.47;;;1.53;;
12681;SDS011;6405;59.208;18.216;2023-09-19T14:43:56;2.97;;;1.37;;
12681;SDS011;6405;59.208;18.216;2023-09-19T14:46:22;3.23;;;1.63;;
12681;SDS011;6405;59.208;18.216;2023-09-19T14:48:49;3.10;;;1.33;;
12681;SDS011;6405;59.208;18.216;2023-09-19T14:51:18;3.53;;;1.60;;
12681;SDS011;6405;59.208;18.216;2023-09-19T14:53:44;5.10;;;1.80;;
12681;SDS011;6405;59.208;18.216;2023-09-19T14:56:12;4.47;;;1.43;;
12681;SDS011;6405;59.208;18.216;2023-09-19T14:58:38;4.03;;;1.37;;
12681;SDS011;6405;59.208;18.216;2023-09-19T15:01:11;4.07;;;1.30;;
12681;SDS011;6405;59.208;18.216;2023-09-19T15:03:38;4.00;;;1.63;;
12681;SDS011;6405;59.208;18.216;2023-09-19T15:06:08;5.33;;;1.67;;
12681;SDS011;6405;59.208;18.216;2023-09-19T15:08:37;4.13;;;1.50;;
12681;SDS011;6405;59.208;18.216;2023-09-19T15:11:12;2.27;;;1.27;;
12681;SDS011;6405;59.208;18.216;2023-09-19T15:13:42;2.67;;;1.50;;
12681;SDS011;6405;59.208;18.216;2023-09-19T15:16:09;3.87;;;1.30;;
12681;SDS011;6405;59.208;18.216;2023-09-19T15:18:39;3.40;;;1.20;;
12681;SDS011;6405;59.208;18.216;2023-09-19T15:21:07;2.73;;;1.07;;
12681;SDS011;6405;59.208;18.216;2023-09-19T15:23:35;3.40;;;1.30;;
12681;SDS011;6405;59.208;18.216;2023-09-19T15:26:06;3.57;;;1.10;;
12681;SDS011;6405;59.208;18.216;2023-09-19T15:28:33;3.13;;;1.40;;
12681;SDS011;6405;59.208;18.216;2023-09-19T15:33:45;4.03;;;1.50;;
12681;SDS011;6405;59.208;18.216;2023-09-19T15:36:12;3.60;;;1.30;;
12681;SDS011;6405;59.208;18.216;2023-09-19T15:41:34;3.37;;;1.57;;
12681;SDS011;6405;59.208;18.216;2023-09-19T15:44:11;4.40;;;1.10;;
12681;SDS011;6405;59.208;18.216;2023-09-19T15:46:38;2.33;;;0.87;;
12681;SDS011;6405;59.208;18.216;2023-09-19T15:49:05;2.23;;;0.90;;
12681;SDS011;6405;59.208;18.216;2023-09-19T15:51:32;2.17;;;0.90;;
12681;SDS011;6405;59.208;18.216;2023-09-19T15:53:58;1.47;;;0.97;;